Flight Track Log - Related Links

Times and Time Zones

All times are in EDT time to prevent confusion due to time zone crossing. See the N560HM flight status page for this flight to view local times or setup timezone preferences in your user account.

Time Position Orientation Groundspeed Altitude Reporting Facility
EDT Latitude Longitude Course Direction KTS MPH feet Rate Location/Type
Mon 03:07:57 PM 40.2119 -80.0428 189° South 245 282 8,300  Level Cleveland Center
Mon 03:08:59 PM 40.1392 -80.0628 192° South 260 299 11,700 3,456 Climbing Cleveland Center
Mon 03:10:02 PM 40.0617 -80.0825 191° South 276 318 15,500 3,552 Climbing Cleveland Center
Mon 03:11:00 PM 39.7986 -80.0894 194° South  Level FlightAware Approximate
Mon 03:11:04 PM 39.9806 -80.0983 189° South 288 331 19,100  Level Cleveland Center
Mon 03:12:00 PM 39.7068 -80.1199 194° South  Level FlightAware Approximate
Mon 03:12:06 PM 39.8956 -80.1186 190° South 303 349 21,600  Level Cleveland Center
Mon 03:13:08 PM 39.7811 -80.1444 190° South 345 397 24,500 2,129 Climbing Cleveland Center
Mon 03:14:10 PM 39.6833 -80.1669 190° South 353 406 26,000 726 Climbing Cleveland Center
Mon 03:15:12 PM 39.5792 -80.1897 190° South 372 428 26,000 290 Level Cleveland Center
Mon 03:16:14 PM 39.4806 -80.2128 190° South 370 426 26,600 1,070 Climbing Cleveland Center
Mon 03:17:21 PM 39.3717 -80.2417 192° South 357 411 28,300 1,512 Climbing Washington Center
Mon 03:18:21 PM 39.2728 -80.2650 190° South 357 411 29,800 893 Climbing Washington Center
Mon 03:19:22 PM 39.1717 -80.2958 193° South 363 418 30,100 915 Climbing Washington Center
Mon 03:20:19 PM 39.0664 -80.3239 192° South 375 432 31,600 1,627 Climbing Washington Center
Mon 03:21:20 PM 38.9669 -80.3547 194° South 380 437 33,300 1,328 Climbing Washington Center
Mon 03:22:21 PM 38.8700 -80.3831 193° South 368 423 34,300 1,412 Climbing Washington Center
Mon 03:23:19 PM 38.7750 -80.4117 193° South 358 412 36,100 2,874 Climbing Washington Center
Mon 03:24:20 PM 38.6842 -80.4428 195° South 358 412 40,000 1,279 Climbing Washington Center
Mon 03:25:21 PM 38.5956 -80.4689 193° South 339 390 38,700 -197 Descending Washington Center
Mon 03:26:22 PM 38.5111 -80.4953 194° South 328 377 39,600 661 Climbing Washington Center
Mon 03:27:19 PM 38.4331 -80.5167 192° South 322 371 40,000 203 Climbing Washington Center
Mon 03:28:20 PM 38.3403 -80.5394 191° South 328 377 40,000  Level Washington Center
Mon 03:29:21 PM 38.2417 -80.5542 187° South 344 396 40,000  Level Washington Center
Mon 03:30:21 PM 38.1283 -80.5678 185° South 370 426 40,000 -356 Level Washington Center
Mon 03:31:19 PM 38.0256 -80.5819 186° South 376 433 39,300 -1,017 Descending Washington Center
Mon 03:32:19 PM 37.9164 -80.5986 187° South 388 447 38,000 -650 Descending Washington Center
Mon 03:33:19 PM 37.8114 -80.6153 187° South 394 453 38,000  Level Washington Center
Mon 03:34:21 PM 37.7150 -80.6272 186° South 389 448 38,000  Level Washington Center
Mon 03:35:22 PM 37.6058 -80.6433 187° South 389 448 38,000  Level Washington Center
Mon 03:37:41 PM 37.3508 -80.6789 186° South 389 448 38,000  Level Atlanta Center
Mon 03:38:41 PM 37.2347 -80.6944 186° South 389 448 38,000  Level Atlanta Center
Mon 03:39:41 PM 37.1286 -80.7092 186° South 389 448 38,000  Level Atlanta Center
Mon 03:40:41 PM 37.0186 -80.7217 185° South 389 448 38,000  Level Atlanta Center
Mon 03:41:41 PM 36.9125 -80.7314 184° South 389 448 38,000  Level Atlanta Center
Mon 03:42:41 PM 36.8128 -80.7433 185° South 389 448 38,000  Level Atlanta Center
Mon 03:43:41 PM 36.6942 -80.7561 185° South 394 453 38,000  Level Atlanta Center
Mon 03:44:41 PM 36.5861 -80.7656 184° South 394 453 38,000  Level Atlanta Center
Mon 03:45:41 PM 36.4781 -80.7778 185° South 394 453 38,000  Level Atlanta Center
Mon 03:46:41 PM 36.3700 -80.7925 186° South 394 453 38,000  Level Atlanta Center
Mon 03:47:41 PM 36.2617 -80.8019 184° South 394 453 38,000  Level Atlanta Center
Mon 03:48:41 PM 36.1514 -80.8142 185° South 394 453 38,000  Level Atlanta Center
Mon 03:49:41 PM 36.0411 -80.8261 185° South 399 459 38,000  Level Atlanta Center
Mon 03:50:41 PM 35.9289 -80.8358 184° South 404 465 38,000  Level Atlanta Center
Mon 03:51:41 PM 35.8208 -80.8478 185° South 404 465 38,000  Level Atlanta Center
Mon 03:52:41 PM 35.7083 -80.8597 185° South 399 459 38,000  Level Atlanta Center
Mon 03:53:41 PM 35.6003 -80.8692 184° South 399 459 38,000  Level Atlanta Center
Mon 03:54:41 PM 35.4900 -80.8811 185° South 404 465 38,000  Level Atlanta Center
Mon 03:55:41 PM 35.3797 -80.8931 185° South 404 465 38,000  Level Atlanta Center
Mon 03:56:41 PM 35.2694 -80.9047 185° South 404 465 38,000  Level Atlanta Center
Mon 03:58:51 PM 35.0456 -80.9250 184° South 394 453 38,000  Level Jacksonville Center
Mon 03:59:51 PM 34.9333 -80.9453 188° South 394 453 38,000  Level Jacksonville Center
Mon 04:00:51 PM 34.8250 -80.9528 183° South 394 453 38,000  Level Jacksonville Center
Mon 04:01:51 PM 34.7206 -80.9528 180° South 394 453 38,000  Level Jacksonville Center
Mon 04:02:51 PM 34.6103 -80.9703 187° South 394 453 38,000  Level Jacksonville Center
Mon 04:03:51 PM 34.5042 -80.9778 183° South 389 448 38,000 -500 Level Jacksonville Center
Mon 04:04:51 PM 34.3978 -80.9903 186° South 389 448 37,000 -1,250 Descending Jacksonville Center
Mon 04:05:51 PM 34.2939 -81.0000 184° South 384 442 35,500 -1,550 Descending Jacksonville Center
Mon 04:06:51 PM 34.1833 -81.0150 186° South 379 436 33,900 -1,550 Descending Jacksonville Center
Mon 04:07:51 PM 34.0814 -81.0222 183° South 379 436 32,400 -1,450 Descending Jacksonville Center
Mon 04:08:51 PM 33.9792 -81.0319 185° South 379 436 31,000 -1,600 Descending Jacksonville Center
Mon 04:09:51 PM 33.8708 -81.0392 183° South 379 436 29,200 -1,750 Descending Jacksonville Center
Mon 04:10:51 PM 33.7667 -81.0489 184° South 384 442 27,500 -1,800 Descending Jacksonville Center
Mon 04:11:51 PM 33.6603 -81.0586 184° South 384 442 25,600 -1,750 Descending Jacksonville Center
Mon 04:12:51 PM 33.5561 -81.0706 185° South 384 442 24,000 -800 Descending Jacksonville Center
Mon 04:13:51 PM 33.4539 -81.0803 185° South 378 435 24,000 -500 Level Jacksonville Center
Mon 04:14:51 PM 33.3519 -81.0897 184° South 373 429 23,000 -1,300 Descending Jacksonville Center
Mon 04:15:51 PM 33.2497 -81.0992 184° South 373 429 21,400 -1,800 Descending Jacksonville Center
Mon 04:16:51 PM 33.1497 -81.1086 185° South 368 423 19,400 -1,900 Descending Jacksonville Center
Mon 04:17:51 PM 33.0497 -81.1181 185° South 368 423 17,600 -1,900 Descending Jacksonville Center
Mon 04:18:51 PM 32.9517 -81.1275 185° South 368 423 15,600 -2,000 Descending Jacksonville Center
Mon 04:19:51 PM 32.8600 -81.1342 183° South 357 411 13,600 -2,000 Descending Jacksonville Center
Mon 04:20:51 PM 32.7786 -81.1481 188° South 329 379 11,600 -2,000 Descending Jacksonville Center
Mon 04:21:51 PM 32.6994 -81.1619 188° South 303 349 9,600 -1,300 Descending Jacksonville Center
Mon 04:22:51 PM 32.6247 -81.1808 192° South 276 318 9,000 -300 Descending Jacksonville Center
Mon 04:23:51 PM 32.5497 -81.1969 190° South 275 316 9,000  Level Jacksonville Center
Mon 04:24:51 PM 32.4750 -81.2181 193° South 275 316 9,000 -600 Level Jacksonville Center
Mon 04:25:51 PM 32.4083 -81.2317 190° South 275 316 7,800 -1,550 Descending Jacksonville Center
Mon 04:26:51 PM 32.3397 -81.2525 194° South 270 311 5,900 -2,050 Descending Jacksonville Center
Mon 04:27:51 PM 32.2669 -81.2906 204° Southwest 265 305 3,700 -1,950 Descending Jacksonville Center
Mon 04:28:51 PM 32.2003 -81.2942 183° South 255 293 2,000 -1,700 Descending Jacksonville Center
Mon 04:30:00 PM 32.1276 -81.2021 180° South  Level Estimated
Mon 04:37:00 PM 32.1276 -81.2021 180° South  Level Estimated
Mon 04:38:00 PM 32.1276 -81.2021 180° South  Level Estimated
Mon 04:39:00 PM 32.1276 -81.2021 180° South  Level Estimated
Mon 04:40:00 PM 32.1276 -81.2021 180° South  Level Estimated
Mon 04:41:00 PM 32.1276 -81.2021 180° South  Level Estimated
Mon 04:42:00 PM 32.1276 -81.2021 180° South  Level Estimated
Mon 04:43:00 PM 32.1276 -81.2021 180° South  Level Estimated
Mon 04:44:00 PM 32.1276 -81.2021 180° South  Level Estimated

Login

Don't have an account? Register now (free) for customized features, flight alerts, and more!